Airfield :
LOGIN :

Register | Disclaimer

   EN    FR    IT 

 










Legend :    VFR   Marginal VFR   IFR   Intensive IFR   Very Intensive IFR
Visi :
Ceiling :
>= 8 km
>= 3000ft
5 to 8 km
1000 to 3000 ft
1500m to 5 km
500 to 1000 ft
800 to 1500m
200 to 500 ft
< 800m
< 200 ft
Symbols :   Thunderstorms  Fog  Heavy snow  Heavy precipitations  Wind > 20 kt
SIGMETs :     Misc.  Thunderstorms  Icing  Turbulence  Mountain Waves  Volcanic Ashes







- Airport Elevation : 146 ft
- IATA code : RKE


EKRK - Roskilde Tune

CURRENT METAR :
  • 180750Z AUTO 15004KT 130V240 1500NDV BR NCD 02/02 Q1017

EXPIRED METARs :
  • 180720Z AUTO 12005KT 0200NDV R11/0450N R29/0450N FG FEW000/// 01/01 Q1017
  • 180650Z AUTO 12003KT 0100NDV R11/0300N R29/0300N FG SCT000/// BKN002/// 01/01 Q1017
  • 180620Z AUTO 18001KT 0050NDV R11/0325N R29/0325N FG VV001 01/01 Q1017
  • 180550Z AUTO 13005KT 0100NDV R11/0400N R29/0450N FG VV001 02/02 Q1017
  • 180520Z AUTO 15005KT 0100NDV R11/0500N R29/0500N FG VV001 02/01 Q1017

TAF TAF EKRK
Valid from the 18 at 06:00 until the 18 at 15:00 UTC


180523Z 1806/1815 14008KT 3000 BR FEW002
TEMPO 1806/1809 0100 FG VV001
BECMG 1809/1811 7000 NSW
No reported NOTAMs for that airfield.



MET'MAP, your aeronautical weather chart ! - Copyright ORBIFLY December 2007 - Disclaimer

ORBIFLY MET'MAP TEAM :

Programming & Development : Alexandra Zaïnal
Concept & Development : Baudouin d'Aumeries
Co-Development & Prog : Marc-Olivier Méhu
Technical & hardware support : Manuel Goepfert

Contact : metmap@orbifly.com




SOURCES & CREDITS :

   NOAA